Time;durP1;ratioP1;P1;durP2;ratioP2;P2;SDS_P1;SDS_P2;PMS_P1;PMS_P2;Temp;Humidity;BMP_temperature;BMP_pressure;BME280_temperature;BME280_humidity;BME280_pressure;Samples;Min_cycle;Max_cycle;Signal;HPM_P1;HPM_P2
2022/06/23 04:01:12;;;;;;;138.65;57.67;;;17.10;99.90;;;;;;5805670;22;20054;-73
2022/06/23 04:03:54;;;;;;;131.05;53.90;;;17.20;99.90;;;;;;5015733;28;20058;-73
2022/06/23 04:06:22;;;;;;;116.72;52.22;;;17.30;99.90;;;;;;5015781;28;20027;-73
2022/06/23 04:08:58;;;;;;;125.05;54.70;;;17.30;99.90;;;;;;5015873;28;20113;-73
2022/06/23 04:11:45;;;;;;;104.25;52.35;;;17.30;99.90;;;;;;5015449;28;20050;-73
2022/06/23 04:14:22;;;;;;;78.88;46.53;;;17.30;99.90;;;;;;5038223;23;20034;-74
2022/06/23 04:17:18;;;;;;;91.47;45.33;;;17.30;99.90;;;;;;5015104;28;20054;-74
2022/06/23 04:19:52;;;;;;;92.18;46.38;;;17.20;99.90;;;;;;4991248;28;20042;-74
2022/06/23 04:22:29;;;;;;;80.32;45.45;;;17.20;99.90;;;;;;5015892;28;20034;-74
2022/06/23 04:25:00;;;;;;;77.60;44.72;;;17.30;99.90;;;;;;5014065;28;20037;-74
2022/06/23 04:27:39;;;;;;;76.57;45.25;;;17.30;99.90;;;;;;5015499;28;20105;-74
2022/06/23 04:30:06;;;;;;;87.70;45.67;;;17.30;99.90;;;;;;5015668;28;20458;-74
2022/06/23 04:32:35;;;;;;;77.70;45.90;;;17.40;99.90;;;;;;5014230;28;20065;-74
2022/06/23 04:35:03;;;;;;;80.93;46.15;;;17.40;99.90;;;;;;5015165;28;20073;-74
2022/06/23 04:37:54;;;;;;;174.70;46.28;;;17.50;99.90;;;;;;5015401;28;20026;-74
2022/06/23 04:40:45;;;;;;;131.13;49.28;;;17.50;99.90;;;;;;5014063;28;20045;-74
2022/06/23 04:43:34;;;;;;;136.30;44.72;;;17.60;99.90;;;;;;5015074;28;20093;-74
2022/06/23 04:46:15;;;;;;;148.60;46.30;;;17.50;99.90;;;;;;5014953;28;20034;-74
2022/06/23 04:48:56;;;;;;;112.72;47.80;;;17.50;99.90;;;;;;5015368;28;20034;-74
2022/06/23 04:51:44;;;;;;;92.65;44.47;;;17.60;99.90;;;;;;5014892;28;20038;-74
2022/06/23 04:54:09;;;;;;;65.85;43.33;;;17.70;99.90;;;;;;5015292;28;20502;-74
2022/06/23 04:56:41;;;;;;;117.45;41.70;;;17.90;99.90;;;;;;5013759;28;20042;-74
2022/06/23 04:59:18;;;;;;;96.03;39.47;;;17.90;99.90;;;;;;5015090;28;20038;-74
2022/06/23 05:01:47;;;;;;;53.50;37.40;;;17.90;99.90;;;;;;5015285;28;20030;-74
2022/06/23 05:04:23;;;;;;;51.13;38.55;;;17.80;99.90;;;;;;5014604;28;20030;-74
2022/06/23 05:06:55;;;;;;;50.38;36.67;;;17.80;99.90;;;;;;5013365;28;20462;-74
2022/06/23 05:09:31;;;;;;;46.65;36.55;;;17.80;99.90;;;;;;5013444;28;20042;-74
2022/06/23 05:12:06;;;;;;;46.97;36.60;;;17.90;99.90;;;;;;5014868;28;20042;-74
2022/06/23 05:14:34;;;;;;;44.55;35.72;;;18.10;99.90;;;;;;5012837;28;20044;-74
2022/06/23 05:17:24;;;;;;;46.20;36.00;;;18.20;99.90;;;;;;5014569;28;20030;-74
2022/06/23 05:19:55;;;;;;;45.25;36.88;;;18.30;99.90;;;;;;5014989;28;20022;-74
2022/06/23 05:22:30;;;;;;;45.17;34.88;;;18.40;99.90;;;;;;5014832;28;20026;-74
2022/06/23 05:24:57;;;;;;;42.83;33.42;;;18.60;99.90;;;;;;5013042;28;20173;-74
2022/06/23 05:27:33;;;;;;;39.50;30.42;;;18.80;99.90;;;;;;5014404;28;20034;-74
2022/06/23 05:30:16;;;;;;;34.70;29.02;;;19.00;99.90;;;;;;5014615;28;20073;-74
2022/06/23 05:32:49;;;;;;;36.17;30.15;;;19.10;99.90;;;;;;5014210;28;20108;-74
2022/06/23 05:35:17;;;;;;;34.95;29.00;;;19.10;99.90;;;;;;5006847;28;20121;-73
2022/06/23 05:37:56;;;;;;;35.92;29.30;;;19.00;99.90;;;;;;5008323;28;20127;-73
2022/06/23 05:40:32;;;;;;;36.47;29.17;;;18.90;99.90;;;;;;5007888;28;20472;-73
2022/06/23 05:43:00;;;;;;;35.38;29.58;;;18.90;99.90;;;;;;4995240;28;20039;-73
2022/06/23 05:45:38;;;;;;;40.10;31.55;;;19.00;99.90;;;;;;4994509;28;20027;-73
2022/06/23 05:48:06;;;;;;;35.47;30.30;;;18.90;99.90;;;;;;4994587;28;20034;-73
2022/06/23 05:50:45;;;;;;;38.53;31.33;;;18.90;99.90;;;;;;4993906;28;20045;-73
2022/06/23 05:53:19;;;;;;;39.65;31.05;;;19.00;99.90;;;;;;4995710;28;20027;-73
2022/06/23 05:55:50;;;;;;;37.63;30.23;;;18.90;99.90;;;;;;4994615;28;20526;-72
2022/06/23 05:58:35;;;;;;;36.75;31.70;;;18.90;99.90;;;;;;4994555;28;20039;-74
2022/06/23 06:01:24;;;;;;;34.95;29.48;;;19.00;99.90;;;;;;5003264;28;20396;-73
2022/06/23 06:03:56;;;;;;;36.58;29.92;;;19.10;99.90;;;;;;5014281;28;20031;-72
2022/06/23 06:06:22;;;;;;;33.88;29.15;;;19.20;99.90;;;;;;5014080;28;20045;-73
2022/06/23 06:11:42;;;;;;;39.97;30.90;;;19.20;99.90;;;;;;5014430;28;20038;-72
2022/06/23 06:14:13;;;;;;;38.78;30.23;;;19.30;99.90;;;;;;5013562;28;20026;-72
2022/06/23 06:16:39;;;;;;;39.53;29.98;;;19.40;99.90;;;;;;5013614;28;20061;-74
2022/06/23 06:19:05;;;;;;;39.45;29.90;;;19.50;99.90;;;;;;5014277;28;20511;-74
2022/06/23 06:21:31;;;;;;;38.47;31.38;;;19.60;99.90;;;;;;5014395;28;20118;-79
2022/06/23 06:24:20;;;;;;;41.35;31.33;;;19.60;99.90;;;;;;5012439;28;20464;-73
2022/06/23 06:26:51;;;;;;;34.10;28.08;;;19.60;99.90;;;;;;5014674;28;20035;-75
2022/06/23 06:29:22;;;;;;;34.63;27.85;;;19.60;99.90;;;;;;5014613;28;20109;-75
2022/06/23 06:31:51;;;;;;;38.85;30.40;;;19.70;99.90;;;;;;5012447;28;20046;-76
2022/06/23 06:34:36;;;;;;;38.13;29.98;;;19.80;99.90;;;;;;5013406;28;20089;-75
2022/06/23 06:37:07;;;;;;;38.95;29.30;;;19.90;99.90;;;;;;5013698;28;20125;-75
2022/06/23 06:39:40;;;;;;;40.65;29.73;;;19.90;99.90;;;;;;5013650;28;20118;-75
2022/06/23 06:42:14;;;;;;;35.03;27.52;;;20.00;99.90;;;;;;5014425;28;20039;-75
2022/06/23 06:44:44;;;;;;;37.30;27.90;;;20.20;99.90;;;;;;5017199;28;20035;-75
2022/06/23 06:47:20;;;;;;;35.95;27.25;;;20.40;99.90;;;;;;5016873;28;20066;-75
2022/06/23 06:49:46;;;;;;;34.70;26.02;;;20.40;99.90;;;;;;5015417;28;20516;-75
2022/06/23 06:52:12;;;;;;;30.50;25.02;;;20.50;99.90;;;;;;5017078;28;20069;-75
2022/06/23 06:54:49;;;;;;;31.60;25.33;;;20.50;99.90;;;;;;5016525;28;20026;-75
2022/06/23 06:57:30;;;;;;;31.02;25.13;;;20.50;99.90;;;;;;5016599;28;20035;-75
2022/06/23 06:59:59;;;;;;;33.17;23.58;;;20.60;99.90;;;;;;5016834;28;20583;-76
2022/06/23 07:02:50;;;;;;;25.30;20.83;;;20.70;99.90;;;;;;5016779;28;20038;-75
2022/06/23 07:05:42;;;;;;;28.20;21.17;;;21.00;99.90;;;;;;5016559;28;20038;-76
2022/06/23 07:08:30;;;;;;;23.35;18.85;;;21.20;99.90;;;;;;5011364;28;20042;-76
2022/06/23 07:11:29;;;;;;;15.05;11.48;;;21.40;99.90;;;;;;5018952;28;20133;-76
2022/06/23 07:14:05;;;;;;;17.75;13.30;;;21.60;99.90;;;;;;5017149;28;20030;-76
2022/06/23 07:16:42;;;;;;;17.25;12.40;;;21.90;99.90;;;;;;5020412;28;20520;-76
2022/06/23 07:19:30;;;;;;;15.25;10.50;;;22.20;99.90;;;;;;5030145;28;20030;-72
2022/06/23 07:22:11;;;;;;;16.33;9.55;;;22.50;99.90;;;;;;5029943;28;20033;-73
2022/06/23 07:24:51;;;;;;;16.17;11.95;;;22.80;99.90;;;;;;5020229;28;20088;-73
2022/06/23 07:27:32;;;;;;;21.05;12.63;;;23.10;99.90;;;;;;5028870;28;20038;-73
2022/06/23 07:30:06;;;;;;;19.35;13.60;;;23.40;99.90;;;;;;5029328;28;20084;-72
2022/06/23 07:32:52;;;;;;;18.30;13.50;;;23.60;99.90;;;;;;5020037;28;20129;-72
2022/06/23 07:35:36;;;;;;;19.23;13.77;;;23.80;99.90;;;;;;5017786;28;20038;-72
2022/06/23 07:38:07;;;;;;;18.15;12.65;;;24.10;99.90;;;;;;5021742;28;20038;-72
2022/06/23 07:40:56;;;;;;;21.83;13.82;;;24.20;99.90;;;;;;5008941;28;20110;-71
2022/06/23 07:43:34;;;;;;;18.30;12.20;;;23.90;99.90;;;;;;5022163;28;20030;-72
2022/06/23 07:46:01;;;;;;;20.58;12.38;;;23.80;99.90;;;;;;5007596;28;20031;-72
2022/06/23 07:48:31;;;;;;;17.30;11.65;;;24.20;99.90;;;;;;5007883;28;20125;-73
2022/06/23 07:50:57;;;;;;;18.73;11.75;;;24.60;99.90;;;;;;5027237;28;20477;-75
2022/06/23 07:53:29;;;;;;;18.75;12.05;;;24.50;99.90;;;;;;5007402;28;20057;-75
2022/06/23 07:55:55;;;;;;;17.42;11.90;;;24.30;99.90;;;;;;5004911;28;20039;-74
2022/06/23 07:58:25;;;;;;;18.88;11.73;;;24.50;99.90;;;;;;5018575;28;20575;-74
2022/06/23 08:00:57;;;;;;;18.30;11.63;;;24.80;99.90;;;;;;5008662;28;20511;-74
2022/06/23 08:03:35;;;;;;;15.90;10.82;;;24.90;99.90;;;;;;5005283;28;20038;-75
2022/06/23 08:06:06;;;;;;;19.45;11.60;;;25.10;99.90;;;;;;5008919;28;20038;-77
2022/06/23 08:08:35;;;;;;;16.42;10.32;;;25.10;99.90;;;;;;5010818;28;20519;-77
2022/06/23 08:13:54;;;;;;;18.85;11.70;;;25.10;99.90;;;;;;5015533;28;20033;-74
2022/06/23 08:19:14;;;;;;;17.02;10.35;;;25.60;99.90;;;;;;5035558;28;20034;-75
2022/06/23 08:21:45;;;;;;;14.98;9.23;;;25.60;99.90;;;;;;5024342;28;20508;-75
2022/06/23 08:24:23;;;;;;;16.65;8.85;;;25.90;99.90;;;;;;5025565;28;20031;-75
2022/06/23 08:26:55;;;;;;;16.20;11.43;;;26.40;99.90;;;;;;5000715;28;20770;-75
2022/06/23 08:29:27;;;;;;;17.63;10.38;;;26.60;99.90;;;;;;5020900;28;20038;-75
2022/06/23 08:31:53;;;;;;;15.63;9.35;;;26.90;99.90;;;;;;5017597;28;20511;-75
2022/06/23 08:34:18;;;;;;;17.17;9.38;;;26.60;99.90;;;;;;5013988;28;20034;-75
2022/06/23 08:36:47;;;;;;;18.20;9.05;;;26.00;99.90;;;;;;5015469;28;20439;-75
2022/06/23 08:39:23;;;;;;;13.88;7.85;;;25.60;99.90;;;;;;5015048;28;20038;-75
2022/06/23 08:42:09;;;;;;;17.20;8.70;;;25.70;99.90;;;;;;5014855;28;20502;-75
2022/06/23 08:44:53;;;;;;;16.02;8.98;;;25.90;99.90;;;;;;5005673;28;20038;-75
2022/06/23 08:47:29;;;;;;;15.20;8.20;;;26.00;99.90;;;;;;5014199;28;20042;-75
2022/06/23 08:50:05;;;;;;;15.90;7.85;;;26.20;99.90;;;;;;5014662;28;20463;-75
2022/06/23 08:52:46;;;;;;;15.60;7.70;;;26.40;99.90;;;;;;5014834;28;20097;-75
2022/06/23 08:55:23;;;;;;;15.45;8.15;;;27.00;99.90;;;;;;5031530;28;20582;-75
2022/06/23 08:57:58;;;;;;;15.45;7.07;;;27.60;99.90;;;;;;5034140;28;20045;-75
2022/06/23 09:00:49;;;;;;;12.60;6.30;;;27.90;99.90;;;;;;5017261;28;20669;-75
2022/06/23 09:03:18;;;;;;;12.98;6.97;;;27.80;99.90;;;;;;5014329;28;20416;-74
2022/06/23 09:05:48;;;;;;;14.32;6.70;;;27.90;99.90;;;;;;5013953;28;20034;-75
2022/06/23 09:08:32;;;;;;;14.57;5.95;;;28.10;99.90;;;;;;5013949;28;20038;-75
2022/06/23 09:11:19;;;;;;;10.05;5.15;;;27.80;99.90;;;;;;5000805;28;20137;-75
2022/06/23 09:14:13;;;;;;;10.25;5.03;;;28.20;99.20;;;;;;5014407;28;20030;-75
2022/06/23 09:16:53;;;;;;;12.00;5.57;;;28.20;98.70;;;;;;5013969;28;20045;-76
2022/06/23 09:19:41;;;;;;;13.25;5.82;;;28.40;99.60;;;;;;5007042;28;20034;-75
2022/06/23 09:22:18;;;;;;;13.23;5.20;;;28.50;97.60;;;;;;5027010;28;20165;-75
2022/06/23 09:24:55;;;;;;;9.23;5.50;;;28.80;99.10;;;;;;5033233;28;20069;-75
2022/06/23 09:27:50;;;;;;;10.32;4.68;;;29.20;97.80;;;;;;5033167;28;20092;-75
2022/06/23 09:30:45;;;;;;;10.60;5.13;;;29.50;95.50;;;;;;5030598;28;20026;-75
2022/06/23 09:33:41;;;;;;;10.23;4.93;;;29.90;94.20;;;;;;5000569;28;20046;-75
2022/06/23 09:36:24;;;;;;;10.20;4.40;;;29.10;94.20;;;;;;5011436;28;20030;-75
2022/06/23 09:38:58;;;;;;;12.45;4.43;;;29.10;95.80;;;;;;4994449;28;20448;-75
2022/06/23 09:41:30;;;;;;;12.32;4.10;;;29.80;93.70;;;;;;5007212;28;20085;-75
2022/06/23 09:44:25;;;;;;;10.48;3.97;;;29.60;94.40;;;;;;5030139;28;20034;-75
2022/06/23 09:47:17;;;;;;;11.98;4.47;;;30.00;93.20;;;;;;5033242;28;20104;-74
2022/06/23 09:50:09;;;;;;;14.85;4.72;;;30.10;91.90;;;;;;5030301;28;20033;-75
2022/06/23 09:52:56;;;;;;;9.98;3.90;;;29.80;91.50;;;;;;5034457;28;20046;-78
2022/06/23 09:55:40;;;;;;;13.52;4.68;;;29.80;93.80;;;;;;5033764;28;20026;-76
2022/06/23 09:58:33;;;;;;;10.10;5.15;;;29.80;91.40;;;;;;5033190;28;20041;-76
2022/06/23 10:01:04;;;;;;;9.98;4.55;;;29.30;92.20;;;;;;5033749;28;20034;-77
2022/06/23 10:03:58;;;;;;;14.77;4.70;;;28.90;93.50;;;;;;5033688;28;20084;-75
2022/06/23 10:06:44;;;;;;;8.25;4.00;;;29.10;94.10;;;;;;5033203;28;20025;-75
2022/06/23 10:09:45;;;;;;;9.63;4.45;;;29.80;93.30;;;;;;5030858;28;20621;-75
2022/06/23 10:12:37;;;;;;;9.57;3.95;;;30.20;91.20;;;;;;5009284;28;20050;-76
2022/06/23 10:15:30;;;;;;;9.07;4.53;;;29.50;91.20;;;;;;5048036;28;20033;-75
2022/06/23 10:18:31;;;;;;;12.57;4.60;;;29.20;92.40;;;;;;5035702;23;20051;-76
2022/06/23 10:21:11;;;;;;;12.82;4.90;;;29.00;93.80;;;;;;5028533;28;20041;-75
2022/06/23 10:23:39;;;;;;;17.08;9.07;;;29.70;92.60;;;;;;5037562;28;20486;-75
2022/06/23 10:26:17;;;;;;;12.30;4.15;;;30.60;90.40;;;;;;5037085;28;20129;-75
2022/06/23 10:29:04;;;;;;;11.57;4.00;;;31.00;90.60;;;;;;5036304;28;20072;-74
2022/06/23 10:32:21;;;;;;;10.25;4.20;;;32.10;84.70;;;;;;5016969;28;20050;-75
2022/06/23 10:34:52;;;;;;;12.90;4.60;;;32.30;84.30;;;;;;5017448;28;20085;-75
2022/06/23 10:37:27;;;;;;;11.35;3.53;;;31.90;81.80;;;;;;5017045;28;20038;-75
2022/06/23 10:40:28;;;;;;;10.90;4.00;;;32.20;80.90;;;;;;5017486;28;20073;-75
2022/06/23 10:43:20;;;;;;;8.98;4.10;;;31.30;81.50;;;;;;5016983;28;20471;-76
2022/06/23 10:46:01;;;;;;;8.98;4.65;;;31.10;84.00;;;;;;5012333;28;20046;-75
2022/06/23 10:49:01;;;;;;;12.48;4.15;;;31.60;81.90;;;;;;5017664;28;20075;-76
2022/06/23 10:52:07;;;;;;;9.60;3.58;;;32.60;80.30;;;;;;5017137;28;20038;-74
2022/06/23 10:54:52;;;;;;;8.60;3.38;;;33.30;75.60;;;;;;4979177;28;20035;-83
2022/06/23 10:57:35;;;;;;;12.27;3.80;;;33.90;75.00;;;;;;5021650;28;20121;-78
2022/06/23 11:00:22;;;;;;;11.52;3.78;;;33.70;72.10;;;;;;5035157;28;20068;-76
2022/06/23 11:03:14;;;;;;;6.50;3.53;;;33.30;72.10;;;;;;5027623;28;20036;-76
2022/06/23 11:06:01;;;;;;;8.90;4.05;;;33.60;73.90;;;;;;5030285;28;20045;-76
2022/06/23 11:08:43;;;;;;;10.70;3.60;;;33.90;70.30;;;;;;5034910;28;20046;-76
2022/06/23 11:11:18;;;;;;;11.60;3.58;;;33.20;71.80;;;;;;5034088;28;20117;-76
2022/06/23 11:14:21;;;;;;;11.52;4.00;;;33.20;76.00;;;;;;5036041;28;20038;-76
2022/06/23 11:17:09;;;;;;;8.90;4.18;;;33.10;75.50;;;;;;5027573;28;20076;-76
2022/06/23 11:19:58;;;;;;;9.25;4.35;;;33.80;72.50;;;;;;5030779;28;20036;-76
2022/06/23 11:22:48;;;;;;;9.27;3.72;;;34.00;72.80;;;;;;5029996;28;20033;-76
2022/06/23 11:25:24;;;;;;;9.25;3.80;;;33.40;71.30;;;;;;5033142;28;20049;-77
2022/06/23 11:28:19;;;;;;;10.13;3.72;;;33.00;74.80;;;;;;5033056;28;20034;-78
2022/06/23 11:31:08;;;;;;;8.85;4.15;;;32.80;70.70;;;;;;5052154;28;20076;-79
2022/06/23 11:34:01;;;;;;;9.95;4.13;;;31.70;74.10;;;;;;5036044;28;20081;-76
2022/06/23 11:37:04;;;;;;;9.02;4.22;;;31.50;76.50;;;;;;5021406;28;20033;-79
2022/06/23 11:39:54;;;;;;;10.27;3.95;;;32.80;72.70;;;;;;5036849;28;20037;-79
2022/06/23 11:42:42;;;;;;;10.95;4.32;;;33.60;72.10;;;;;;5035993;28;20045;-78
2022/06/23 11:45:28;;;;;;;11.93;3.95;;;33.70;70.50;;;;;;4997229;28;20065;-78
2022/06/23 11:48:03;;;;;;;10.30;3.55;;;33.10;71.90;;;;;;4996862;28;20896;-78
2022/06/23 11:50:59;;;;;;;12.27;4.30;;;32.40;73.80;;;;;;4996680;28;20053;-78
2022/06/23 11:53:33;;;;;;;8.80;4.00;;;31.90;76.30;;;;;;4995313;28;20090;-77
2022/06/23 11:56:06;;;;;;;8.02;3.50;;;32.70;73.80;;;;;;5013551;28;20066;-78
2022/06/23 11:59:02;;;;;;;10.88;4.43;;;33.40;72.70;;;;;;5047753;28;20030;-78
2022/06/23 12:01:28;;;;;;;12.27;4.10;;;33.50;71.50;;;;;;5028989;28;20038;-77
2022/06/23 12:04:14;;;;;;;11.98;3.95;;;33.80;68.50;;;;;;5025964;28;20477;-77
2022/06/23 12:06:55;;;;;;;8.07;3.70;;;34.40;71.00;;;;;;5023122;28;20049;-78
2022/06/23 12:10:02;;;;;;;12.38;4.03;;;34.70;67.90;;;;;;5035269;28;20108;-78
2022/06/23 12:12:30;;;;;;;9.80;3.90;;;33.80;67.10;;;;;;5024912;28;20049;-79
2022/06/23 12:14:56;;;;;;;10.63;4.20;;;33.20;67.00;;;;;;5026531;28;20542;-78
2022/06/23 12:17:30;;;;;;;11.63;4.20;;;32.90;69.60;;;;;;5001118;28;20052;-78
2022/06/23 12:20:11;;;;;;;8.73;3.90;;;32.50;71.40;;;;;;5035339;28;20030;-78
2022/06/23 12:22:48;;;;;;;10.15;3.78;;;32.10;71.10;;;;;;5031167;28;20038;-78
2022/06/23 12:25:24;;;;;;;10.32;4.10;;;32.70;71.70;;;;;;5016397;28;20031;-78
2022/06/23 12:28:00;;;;;;;11.73;3.88;;;33.40;71.60;;;;;;5019075;28;20660;-78
2022/06/23 12:30:28;;;;;;;10.50;3.97;;;34.50;68.00;;;;;;5029707;28;20042;-78
2022/06/23 12:33:08;;;;;;;8.40;3.78;;;34.80;67.70;;;;;;5034668;28;20034;-78
2022/06/23 12:35:48;;;;;;;13.80;4.18;;;35.10;66.60;;;;;;5029888;28;20526;-78
2022/06/23 12:38:25;;;;;;;9.80;4.30;;;34.80;67.10;;;;;;5028757;28;20030;-78
2022/06/23 12:41:08;;;;;;;5.95;3.53;;;33.90;65.20;;;;;;5030580;28;20065;-78
2022/06/23 12:43:43;;;;;;;9.25;3.85;;;33.70;69.20;;;;;;5028729;28;20052;-79
2022/06/23 12:46:33;;;;;;;10.85;4.22;;;34.60;65.60;;;;;;5031637;28;20036;-78
2022/06/23 12:49:31;;;;;;;9.23;3.95;;;35.10;68.20;;;;;;5021731;28;20035;-78
2022/06/23 12:52:17;;;;;;;8.52;3.83;;;35.10;63.50;;;;;;5018216;28;20183;-78
2022/06/23 12:55:03;;;;;;;9.50;4.20;;;35.20;65.50;;;;;;5012940;28;20104;-75
2022/06/23 12:57:37;;;;;;;13.23;4.38;;;34.10;64.30;;;;;;5014906;28;20061;-73
2022/06/23 13:00:21;;;;;;;10.40;4.22;;;33.30;65.10;;;;;;5010639;28;20042;-73
2022/06/23 13:03:09;;;;;;;10.07;4.00;;;32.70;72.00;;;;;;5013243;28;20499;-77
2022/06/23 13:05:47;;;;;;;10.60;4.35;;;32.70;69.10;;;;;;5015247;28;20145;-75
2022/06/23 13:08:25;;;;;;;13.27;4.60;;;33.30;67.00;;;;;;5015304;28;20488;-75
2022/06/23 13:10:58;;;;;;;10.52;3.83;;;32.70;66.00;;;;;;5015136;28;20042;-76
2022/06/23 13:13:44;;;;;;;13.60;4.30;;;32.50;69.90;;;;;;5015029;28;20042;-76
2022/06/23 13:16:24;;;;;;;13.85;4.15;;;33.00;67.10;;;;;;5014636;28;20050;-74
2022/06/23 13:19:10;;;;;;;9.50;4.25;;;32.90;67.40;;;;;;5015756;28;20031;-76
2022/06/23 13:21:37;;;;;;;9.30;4.30;;;33.70;66.40;;;;;;5015638;28;20412;-75
2022/06/23 13:24:16;;;;;;;12.55;4.55;;;35.20;65.00;;;;;;5005229;28;20815;-76
2022/06/23 13:26:49;;;;;;;7.93;3.70;;;35.70;60.10;;;;;;5012321;28;20042;-76
2022/06/23 13:29:18;;;;;;;11.13;4.07;;;36.90;59.50;;;;;;5015833;28;20033;-74
2022/06/23 13:31:57;;;;;;;12.13;3.75;;;36.80;58.20;;;;;;5017098;28;20506;-75
2022/06/23 13:34:30;;;;;;;10.00;3.85;;;37.10;57.60;;;;;;5027918;28;20108;-76
2022/06/23 13:37:05;;;;;;;11.75;4.00;;;38.40;54.80;;;;;;5028300;28;20042;-76
2022/06/23 13:39:49;;;;;;;8.05;3.80;;;37.90;54.10;;;;;;5034609;28;20104;-76
2022/06/23 13:42:28;;;;;;;8.60;3.70;;;36.90;56.10;;;;;;5020511;28;20040;-76
2022/06/23 13:45:03;;;;;;;9.15;3.85;;;36.70;57.20;;;;;;5033116;28;20066;-76
2022/06/23 13:47:45;;;;;;;8.38;3.88;;;38.10;56.60;;;;;;5024253;28;20046;-75
2022/06/23 13:50:31;;;;;;;10.32;4.43;;;38.60;54.30;;;;;;5023244;28;20038;-76
2022/06/23 13:53:03;;;;;;;9.60;3.92;;;38.60;52.50;;;;;;5034715;28;20526;-76
2022/06/23 13:55:44;;;;;;;9.55;4.22;;;37.90;53.80;;;;;;5035906;28;20026;-76
2022/06/23 13:58:28;;;;;;;11.68;4.32;;;38.40;55.90;;;;;;5036193;28;20042;-76
2022/06/23 14:01:08;;;;;;;10.05;4.10;;;39.20;55.00;;;;;;5028727;28;20056;-77
2022/06/23 14:03:55;;;;;;;11.35;4.05;;;39.60;50.20;;;;;;5017855;28;20065;-75
2022/06/23 14:06:30;;;;;;;10.75;4.25;;;39.50;52.00;;;;;;5031773;28;20034;-75
2022/06/23 14:09:02;;;;;;;8.55;4.00;;;38.50;51.60;;;;;;5037757;28;20084;-76
2022/06/23 14:11:48;;;;;;;13.13;4.22;;;38.50;52.70;;;;;;5025313;28;20394;-75
2022/06/23 14:14:32;;;;;;;10.82;4.40;;;38.70;53.30;;;;;;5003172;28;20086;-75
2022/06/23 14:17:22;;;;;;;9.38;3.85;;;38.60;50.60;;;;;;5009124;28;20046;-75
2022/06/23 14:19:57;;;;;;;11.15;3.60;;;37.10;52.40;;;;;;5049380;28;20046;-75
2022/06/23 14:22:40;;;;;;;8.98;3.78;;;36.00;56.10;;;;;;5017326;28;20492;-75
2022/06/23 14:25:30;;;;;;;12.80;4.13;;;37.00;56.70;;;;;;5017682;28;20403;-75
2022/06/23 14:28:29;;;;;;;10.85;4.60;;;38.50;54.10;;;;;;5017324;28;20073;-76
2022/06/23 14:30:59;;;;;;;9.02;3.70;;;39.40;48.80;;;;;;5017271;28;20053;-78
2022/06/23 14:33:52;;;;;;;11.45;3.53;;;38.60;54.10;;;;;;5017544;28;20428;-77
2022/06/23 14:36:48;;;;;;;8.98;4.45;;;38.50;51.10;;;;;;4999710;28;20050;-78
2022/06/23 14:39:35;;;;;;;8.60;4.10;;;39.10;50.50;;;;;;5017141;28;20045;-78
2022/06/23 14:42:15;;;;;;;10.32;4.13;;;40.80;49.90;;;;;;5016714;28;20042;-78
2022/06/23 14:45:00;;;;;;;9.10;3.90;;;41.80;49.10;;;;;;5017079;28;20026;-78
2022/06/23 14:47:50;;;;;;;10.88;4.03;;;42.40;44.40;;;;;;5009304;28;20042;-78
2022/06/23 14:50:39;;;;;;;8.38;3.80;;;42.00;45.40;;;;;;5015381;28;20143;-79
2022/06/23 14:53:16;;;;;;;6.20;3.42;;;43.10;45.70;;;;;;5016926;28;20130;-76
2022/06/23 14:56:18;;;;;;;8.77;3.67;;;42.90;43.70;;;;;;5017203;28;20031;-75
2022/06/23 14:58:48;;;;;;;11.70;4.10;;;40.70;46.10;;;;;;5017140;28;20045;-75
2022/06/23 15:01:24;;;;;;;5.93;3.55;;;40.70;45.80;;;;;;5016375;28;20085;-78
2022/06/23 15:03:58;;;;;;;9.80;3.70;;;41.80;44.30;;;;;;5016372;28;20044;-76
2022/06/23 15:06:48;;;;;;;8.88;3.65;;;41.80;43.80;;;;;;5016567;28;20030;-76
2022/06/23 15:09:19;;;;;;;9.30;3.75;;;41.70;45.50;;;;;;5032395;28;20074;-76
2022/06/23 15:11:59;;;;;;;8.85;3.63;;;41.80;45.30;;;;;;5015037;28;20050;-76
2022/06/23 15:14:35;;;;;;;9.48;4.25;;;42.80;42.70;;;;;;4997362;28;20497;-76
2022/06/23 15:17:09;;;;;;;10.25;3.88;;;44.40;42.90;;;;;;4996316;28;20081;-77
2022/06/23 15:19:49;;;;;;;10.07;4.00;;;43.90;41.70;;;;;;4997270;28;20126;-76
2022/06/23 15:25:23;;;;;;;11.40;4.50;;;43.90;40.50;;;;;;5014859;28;20517;-76
2022/06/23 15:27:55;;;;;;;7.55;3.70;;;43.90;41.90;;;;;;5015565;28;20034;-77
2022/06/23 15:30:28;;;;;;;9.40;3.42;;;43.50;40.90;;;;;;5048267;28;20514;-77
2022/06/23 15:33:14;;;;;;;6.20;3.20;;;42.70;41.00;;;;;;5016450;28;20473;-76
2022/06/23 15:35:52;;;;;;;6.78;3.58;;;43.30;43.70;;;;;;5016554;28;20044;-76
2022/06/23 15:38:36;;;;;;;8.05;3.10;;;42.80;40.60;;;;;;5016272;28;20492;-77
2022/06/23 15:41:26;;;;;;;9.13;3.20;;;43.40;40.50;;;;;;5000787;28;20046;-76
2022/06/23 15:43:52;;;;;;;11.15;3.42;;;45.20;39.60;;;;;;5016378;28;20031;-77
2022/06/23 15:46:29;;;;;;;8.30;3.53;;;44.20;40.70;;;;;;5016005;28;20038;-76
2022/06/23 15:49:05;;;;;;;8.55;3.50;;;43.10;40.50;;;;;;5032324;28;20125;-77
2022/06/23 15:51:40;;;;;;;8.18;4.05;;;42.60;41.80;;;;;;5014670;28;20053;-76
2022/06/23 15:54:20;;;;;;;7.80;3.63;;;43.10;41.20;;;;;;5015790;28;20042;-76
2022/06/23 15:57:04;;;;;;;7.50;3.25;;;42.40;42.10;;;;;;5015264;28;20050;-76
2022/06/23 15:59:43;;;;;;;9.68;3.55;;;42.40;41.70;;;;;;5016015;28;20037;-76
2022/06/23 16:02:11;;;;;;;7.97;3.28;;;41.30;43.10;;;;;;5016231;28;20038;-76
2022/06/23 16:04:46;;;;;;;6.47;3.38;;;40.30;43.80;;;;;;5016131;28;20038;-76
2022/06/23 16:07:19;;;;;;;7.35;3.17;;;40.50;44.00;;;;;;5015433;28;20038;-78
2022/06/23 16:09:50;;;;;;;8.60;3.40;;;39.80;45.90;;;;;;5047618;28;20113;-75
2022/06/23 16:12:20;;;;;;;8.88;3.38;;;38.40;47.50;;;;;;5015786;28;20038;-78
2022/06/23 16:14:52;;;;;;;8.15;3.60;;;36.50;49.00;;;;;;5015086;28;20032;-77
2022/06/23 16:17:23;;;;;;;11.38;3.35;;;35.30;51.10;;;;;;5015692;28;20046;-75
2022/06/23 16:19:52;;;;;;;6.32;3.05;;;35.20;55.60;;;;;;5016053;28;20122;-76
2022/06/23 16:22:25;;;;;;;9.85;3.60;;;36.00;51.90;;;;;;5047110;28;20041;-76
2022/06/23 16:25:26;;;;;;;5.95;3.25;;;38.00;50.50;;;;;;4995987;28;20093;-76
2022/06/23 16:28:24;;;;;;;10.02;3.60;;;39.40;47.10;;;;;;5002698;28;20047;-75
2022/06/23 16:30:51;;;;;;;9.32;3.20;;;38.80;45.80;;;;;;5015778;28;20046;-76
2022/06/23 16:33:29;;;;;;;8.48;3.05;;;37.70;47.40;;;;;;5015560;28;20547;-76
2022/06/23 16:36:10;;;;;;;8.32;3.10;;;36.70;49.40;;;;;;5015241;28;20046;-75
2022/06/23 16:38:52;;;;;;;6.97;3.00;;;35.80;51.10;;;;;;5015237;28;20096;-75
2022/06/23 16:41:39;;;;;;;8.82;3.25;;;35.00;52.60;;;;;;5015734;28;20046;-75
2022/06/23 16:44:22;;;;;;;7.45;3.05;;;34.60;54.30;;;;;;5015548;28;20405;-75
2022/06/23 16:47:02;;;;;;;7.45;3.92;;;34.00;55.00;;;;;;5015085;28;20042;-77
2022/06/23 16:49:47;;;;;;;8.60;3.47;;;33.80;54.70;;;;;;4996028;28;20034;-77
2022/06/23 16:52:22;;;;;;;7.32;3.50;;;33.90;55.10;;;;;;4995453;28;20077;-77
2022/06/23 16:55:02;;;;;;;9.63;3.15;;;34.00;54.70;;;;;;4994310;28;20062;-77
2022/06/23 16:57:40;;;;;;;7.35;3.05;;;33.40;55.90;;;;;;4998484;28;20042;-77
2022/06/23 17:00:13;;;;;;;6.00;3.38;;;32.90;55.60;;;;;;5015155;28;20034;-77
2022/06/23 17:02:59;;;;;;;11.23;3.13;;;32.60;56.40;;;;;;5014590;28;20145;-78
2022/06/23 17:05:30;;;;;;;9.55;3.40;;;32.50;56.50;;;;;;5015341;28;20050;-76
2022/06/23 17:08:00;;;;;;;10.43;3.45;;;32.40;56.80;;;;;;5014747;28;20112;-76
2022/06/23 17:10:39;;;;;;;8.15;3.17;;;32.30;57.20;;;;;;5023864;28;20042;-77
2022/06/23 17:13:22;;;;;;;7.90;3.38;;;32.40;57.30;;;;;;5035686;28;20500;-79
2022/06/23 17:16:19;;;;;;;10.23;3.67;;;32.30;58.10;;;;;;5036373;28;20752;-81
2022/06/23 17:18:51;;;;;;;9.38;3.47;;;32.10;59.40;;;;;;5034621;28;20447;-75
2022/06/23 17:21:41;;;;;;;7.25;2.60;;;32.30;59.00;;;;;;5035005;28;20415;-77
2022/06/23 17:24:18;;;;;;;6.10;2.63;;;32.30;59.00;;;;;;5020386;28;20045;-79
2022/06/23 17:27:03;;;;;;;7.32;2.75;;;32.40;59.20;;;;;;5037694;28;20038;-78
2022/06/23 17:30:09;;;;;;;7.05;2.50;;;32.10;60.90;;;;;;5018943;28;20868;-81
2022/06/23 17:32:44;;;;;;;7.72;2.35;;;31.80;60.80;;;;;;5026700;28;20537;-76
2022/06/23 17:35:35;;;;;;;7.10;2.38;;;31.50;61.80;;;;;;5033435;28;20101;-75
2022/06/23 17:44:45;;;;;;;5.25;2.33;;;30.70;64.40;;;;;;5018166;28;20494;-79
2022/06/23 17:47:30;;;;;;;9.50;2.60;;;30.60;64.30;;;;;;5030053;28;20566;-76
2022/06/23 17:49:56;;;;;;;8.73;2.55;;;30.50;65.20;;;;;;5017537;28;20066;-80
2022/06/23 17:52:44;;;;;;;10.32;2.97;;;30.50;65.10;;;;;;5017129;28;20043;-76
2022/06/23 17:55:26;;;;;;;8.15;2.40;;;30.60;65.40;;;;;;5021767;28;20042;-78
2022/06/23 17:58:16;;;;;;;6.13;2.40;;;31.00;64.10;;;;;;5027885;28;20038;-82